Time;durP1;ratioP1;P1;durP2;ratioP2;P2;SDS_P1;SDS_P2;PMS_P1;PMS_P2;Temp;Humidity;BMP_temperature;BMP_pressure;BME280_temperature;BME280_humidity;BME280_pressure;Samples;Min_cycle;Max_cycle;Signal;HPM_P1;HPM_P2
2022/09/02 00:02:15;;;;;;;7.87;7.30;;;15.50;99.90;;;;;;5081713;28;20501;-85
2022/09/02 00:04:42;;;;;;;7.47;6.97;;;15.50;99.90;;;;;;5081418;28;20448;-86
2022/09/02 00:07:10;;;;;;;8.50;7.90;;;15.40;99.90;;;;;;5081612;28;20455;-85
2022/09/02 00:09:39;;;;;;;7.77;7.27;;;15.40;99.90;;;;;;5081403;28;20578;-85
2022/09/02 00:12:06;;;;;;;7.00;6.50;;;15.40;99.90;;;;;;5081597;28;20471;-86
2022/09/02 00:14:38;;;;;;;8.33;7.53;;;15.30;99.90;;;;;;5081299;28;20456;-85
2022/09/02 00:17:05;;;;;;;7.87;7.27;;;15.30;99.90;;;;;;5079588;28;20887;-85
2022/09/02 00:19:32;;;;;;;7.73;7.20;;;15.30;99.90;;;;;;5080306;28;20467;-85
2022/09/02 00:22:01;;;;;;;9.33;6.80;;;15.20;99.90;;;;;;5080221;28;20432;-85
2022/09/02 00:24:27;;;;;;;7.30;6.80;;;15.20;99.90;;;;;;5080262;28;20459;-86
2022/09/02 00:26:56;;;;;;;6.73;6.23;;;15.20;99.90;;;;;;5080245;28;20447;-86
2022/09/02 00:29:22;;;;;;;6.00;5.50;;;15.10;99.90;;;;;;5080050;28;20574;-85
2022/09/02 00:31:49;;;;;;;6.73;6.23;;;15.10;99.90;;;;;;5080632;28;21025;-86
2022/09/02 00:34:16;;;;;;;5.80;5.40;;;15.10;99.90;;;;;;5080338;28;20475;-86
2022/09/02 00:36:43;;;;;;;5.43;5.03;;;15.10;99.90;;;;;;5080299;28;20818;-86
2022/09/02 00:39:11;;;;;;;5.70;5.30;;;15.10;99.90;;;;;;5080100;28;20933;-85
2022/09/02 00:41:40;;;;;;;5.37;4.97;;;15.10;99.90;;;;;;5079972;28;20510;-85
2022/09/02 00:44:11;;;;;;;6.20;5.70;;;15.10;99.90;;;;;;5080213;28;20454;-85
2022/09/02 00:46:38;;;;;;;5.80;5.40;;;15.10;99.90;;;;;;5080103;28;20554;-85
2022/09/02 00:49:10;;;;;;;7.47;6.87;;;15.10;99.90;;;;;;5080047;28;20853;-85
2022/09/02 00:51:42;;;;;;;5.87;5.33;;;15.10;99.90;;;;;;5080197;28;20456;-86
2022/09/02 00:54:10;;;;;;;5.20;4.80;;;15.10;99.90;;;;;;5079476;28;20457;-85
2022/09/02 00:56:38;;;;;;;5.07;4.77;;;15.10;99.90;;;;;;5079920;28;20451;-85
2022/09/02 00:59:06;;;;;;;5.03;4.60;;;15.10;99.90;;;;;;5079056;28;20467;-86
2022/09/02 01:01:34;;;;;;;5.23;4.83;;;15.10;99.90;;;;;;5079611;28;20451;-85
2022/09/02 01:04:01;;;;;;;4.57;4.10;;;15.10;99.90;;;;;;5079296;28;20547;-85
2022/09/02 01:06:31;;;;;;;4.60;4.30;;;15.10;99.90;;;;;;5080543;28;20484;-85
2022/09/02 01:09:02;;;;;;;5.17;4.77;;;15.10;99.90;;;;;;5080662;28;21054;-85
2022/09/02 01:11:37;;;;;;;5.10;4.70;;;15.10;99.90;;;;;;5080556;28;20453;-85
2022/09/02 01:14:05;;;;;;;5.37;5.07;;;15.10;99.90;;;;;;5042984;28;1053090;-85
2022/09/02 01:16:39;;;;;;;4.30;4.00;;;15.10;99.90;;;;;;5080397;28;20207;-85
2022/09/02 01:19:12;;;;;;;5.20;4.70;;;15.10;99.90;;;;;;5079225;28;20490;-85
2022/09/02 01:21:39;;;;;;;5.97;5.47;;;15.10;99.90;;;;;;5080380;28;20511;-85
2022/09/02 01:24:07;;;;;;;5.73;5.33;;;15.10;99.90;;;;;;5079897;28;20577;-86
2022/09/02 01:26:34;;;;;;;6.10;5.60;;;15.00;99.90;;;;;;5079586;28;20445;-85
2022/09/02 01:29:01;;;;;;;5.80;5.20;;;15.00;99.90;;;;;;5079844;28;21032;-85
2022/09/02 01:31:28;;;;;;;4.80;4.50;;;15.00;99.90;;;;;;5079944;28;20461;-85
2022/09/02 01:33:55;;;;;;;5.67;5.30;;;15.00;99.90;;;;;;5080477;28;20540;-85
2022/09/02 01:36:22;;;;;;;5.10;4.80;;;14.90;99.90;;;;;;5079708;28;20451;-85
2022/09/02 01:38:48;;;;;;;5.40;4.77;;;14.90;99.90;;;;;;5079033;28;20471;-85
2022/09/02 01:41:17;;;;;;;5.57;5.17;;;14.90;99.90;;;;;;5079412;28;20511;-85
2022/09/02 01:43:43;;;;;;;5.73;5.33;;;14.80;99.90;;;;;;5080176;28;20453;-85
2022/09/02 01:46:10;;;;;;;6.13;5.73;;;14.80;99.90;;;;;;5079928;28;20454;-85
2022/09/02 01:48:37;;;;;;;5.57;5.17;;;14.70;99.90;;;;;;5079810;28;20522;-85
2022/09/02 01:51:04;;;;;;;5.97;5.53;;;14.70;99.90;;;;;;5079932;28;20809;-85
2022/09/02 01:53:31;;;;;;;7.20;6.03;;;14.60;99.90;;;;;;5079229;28;20459;-85
2022/09/02 01:55:59;;;;;;;5.17;4.83;;;14.60;99.90;;;;;;5079361;28;20457;-85
2022/09/02 01:58:27;;;;;;;4.87;4.57;;;14.60;99.90;;;;;;5080144;28;20448;-85
2022/09/02 02:00:53;;;;;;;6.40;5.90;;;14.50;99.90;;;;;;5080366;28;20445;-85
2022/09/02 02:03:21;;;;;;;5.30;4.90;;;14.50;99.90;;;;;;5079580;28;20440;-86
2022/09/02 02:05:48;;;;;;;6.37;5.80;;;14.50;99.90;;;;;;5080338;28;20450;-86
2022/09/02 02:08:14;;;;;;;4.80;4.50;;;14.50;99.90;;;;;;5080631;28;20438;-86
2022/09/02 02:10:42;;;;;;;5.83;5.40;;;14.40;99.90;;;;;;5081197;28;20563;-86
2022/09/02 02:13:09;;;;;;;5.63;5.13;;;14.40;99.90;;;;;;5081113;28;20448;-86
2022/09/02 02:15:39;;;;;;;6.27;5.67;;;14.40;99.90;;;;;;5081091;28;20484;-86
2022/09/02 02:18:06;;;;;;;5.90;5.37;;;14.30;99.90;;;;;;5080443;28;20461;-86
2022/09/02 02:20:33;;;;;;;4.77;4.37;;;14.30;99.90;;;;;;5078923;28;20472;-86
2022/09/02 02:23:00;;;;;;;5.40;5.00;;;14.30;99.90;;;;;;5079686;28;20461;-86
2022/09/02 02:25:27;;;;;;;5.23;4.83;;;14.30;99.90;;;;;;5079776;28;20965;-86
2022/09/02 02:27:54;;;;;;;5.60;5.27;;;14.30;99.90;;;;;;5078727;28;20443;-86
2022/09/02 02:30:21;;;;;;;5.40;5.00;;;14.30;99.90;;;;;;5078935;28;20493;-86
2022/09/02 02:32:49;;;;;;;5.77;5.37;;;14.20;99.90;;;;;;5079593;28;20830;-86
2022/09/02 02:35:18;;;;;;;5.40;5.00;;;14.20;99.90;;;;;;5079519;28;20467;-86
2022/09/02 02:37:47;;;;;;;6.00;5.60;;;14.20;99.90;;;;;;5078825;28;20452;-86
2022/09/02 02:40:16;;;;;;;6.73;6.20;;;14.20;99.90;;;;;;5082405;28;20503;-86
2022/09/02 02:42:43;;;;;;;5.17;4.77;;;14.10;99.90;;;;;;5083286;28;20449;-86
2022/09/02 02:45:11;;;;;;;6.67;6.27;;;14.00;99.90;;;;;;5084878;28;20457;-86
2022/09/02 02:47:39;;;;;;;6.90;6.40;;;14.00;99.90;;;;;;5090959;28;20455;-86
2022/09/02 02:50:10;;;;;;;6.10;5.70;;;14.00;99.90;;;;;;5090995;28;20492;-85
2022/09/02 02:52:39;;;;;;;5.97;5.57;;;13.90;99.90;;;;;;5090159;28;20452;-86
2022/09/02 02:55:07;;;;;;;6.47;5.97;;;13.90;99.90;;;;;;5089316;28;20461;-85
2022/09/02 02:57:34;;;;;;;6.50;6.00;;;13.80;99.90;;;;;;5090194;28;20538;-85
2022/09/02 03:00:05;;;;;;;6.90;6.00;;;13.80;99.90;;;;;;5089386;28;20471;-85
2022/09/02 03:02:32;;;;;;;7.43;6.83;;;13.70;99.90;;;;;;5090684;28;20643;-85
2022/09/02 03:05:00;;;;;;;5.80;5.40;;;13.70;99.90;;;;;;5089985;28;20469;-85
2022/09/02 03:07:28;;;;;;;6.53;5.93;;;13.70;99.90;;;;;;5091181;28;20457;-85
2022/09/02 03:09:55;;;;;;;6.80;6.20;;;13.70;99.90;;;;;;5091378;28;20490;-85
2022/09/02 03:12:22;;;;;;;6.83;5.90;;;13.60;99.90;;;;;;5092086;28;20543;-85
2022/09/02 03:14:49;;;;;;;6.13;5.63;;;13.60;99.90;;;;;;5092194;28;20474;-85
2022/09/02 03:17:16;;;;;;;6.20;5.60;;;13.60;99.90;;;;;;5091053;28;20435;-85
2022/09/02 03:19:42;;;;;;;6.40;5.90;;;13.50;99.90;;;;;;5090977;28;20488;-85
2022/09/02 03:22:09;;;;;;;6.30;5.90;;;13.50;99.90;;;;;;5090181;28;20443;-83
2022/09/02 03:24:38;;;;;;;6.30;5.90;;;13.50;99.90;;;;;;5092449;28;20447;-85
2022/09/02 03:27:05;;;;;;;5.63;5.13;;;13.50;99.90;;;;;;5090142;28;20542;-86
2022/09/02 03:29:32;;;;;;;6.83;6.17;;;13.50;99.90;;;;;;5088789;28;20502;-85
2022/09/02 03:31:59;;;;;;;6.33;5.93;;;13.40;99.90;;;;;;5091289;28;20457;-86
2022/09/02 03:34:26;;;;;;;6.50;6.00;;;13.40;99.90;;;;;;5089482;28;20462;-85
2022/09/02 03:36:53;;;;;;;7.27;6.67;;;13.40;99.90;;;;;;5090232;28;20455;-85
2022/09/02 03:39:20;;;;;;;6.63;6.13;;;13.40;99.90;;;;;;5088885;28;20530;-85
2022/09/02 03:41:49;;;;;;;7.20;6.70;;;13.40;99.90;;;;;;5089554;28;20455;-85
2022/09/02 03:44:16;;;;;;;7.07;6.40;;;13.30;99.90;;;;;;5088977;28;20455;-85
2022/09/02 03:46:43;;;;;;;6.93;6.43;;;13.30;99.90;;;;;;5089601;28;20457;-85
2022/09/02 03:49:09;;;;;;;7.07;6.47;;;13.30;99.90;;;;;;5089292;28;20487;-85
2022/09/02 03:51:40;;;;;;;7.20;6.80;;;13.30;99.90;;;;;;5088651;28;20452;-85
2022/09/02 03:54:09;;;;;;;7.00;6.50;;;13.20;99.90;;;;;;5089010;28;20457;-85
2022/09/02 03:56:36;;;;;;;6.80;6.30;;;13.20;99.90;;;;;;5088830;28;20439;-85
2022/09/02 03:59:04;;;;;;;8.70;7.97;;;13.20;99.90;;;;;;5088573;28;20460;-85
2022/09/02 04:01:31;;;;;;;6.50;6.00;;;13.20;99.90;;;;;;5088976;28;20537;-86
2022/09/02 04:03:58;;;;;;;7.83;7.13;;;13.20;99.90;;;;;;5089484;28;20444;-85
2022/09/02 04:06:25;;;;;;;6.70;6.20;;;13.10;99.90;;;;;;5090039;28;20534;-86
2022/09/02 04:08:52;;;;;;;9.70;7.40;;;13.10;99.90;;;;;;5089843;28;20468;-85
2022/09/02 04:11:22;;;;;;;123.10;109.83;;;13.10;99.90;;;;;;5085272;28;20457;-85
2022/09/02 04:13:50;;;;;;;34.47;31.00;;;13.10;99.90;;;;;;5079721;28;20447;-83
2022/09/02 04:16:21;;;;;;;8.50;7.80;;;13.00;99.90;;;;;;5080231;28;20451;-84
2022/09/02 04:18:51;;;;;;;7.20;6.70;;;13.00;99.90;;;;;;5078908;28;20505;-86
2022/09/02 04:21:19;;;;;;;21.57;19.57;;;13.00;99.90;;;;;;5080526;28;20911;-85
2022/09/02 04:23:46;;;;;;;122.43;104.10;;;13.00;99.90;;;;;;5080732;28;20799;-85
2022/09/02 04:26:16;;;;;;;41.40;36.33;;;13.00;99.90;;;;;;5080824;28;20455;-85
2022/09/02 04:28:42;;;;;;;11.03;10.23;;;13.10;99.90;;;;;;5078364;28;20436;-84
2022/09/02 04:31:11;;;;;;;7.30;6.70;;;13.10;99.90;;;;;;5079112;28;20483;-83
2022/09/02 04:33:40;;;;;;;7.40;6.70;;;13.20;99.90;;;;;;5079351;28;20453;-83
2022/09/02 04:36:10;;;;;;;6.00;5.60;;;13.20;99.90;;;;;;5079955;28;20455;-83
2022/09/02 04:38:37;;;;;;;6.50;6.10;;;13.20;99.90;;;;;;5079470;28;20447;-84
2022/09/02 04:41:07;;;;;;;6.90;6.40;;;13.20;99.90;;;;;;5077365;28;20447;-83
2022/09/02 04:43:34;;;;;;;10.00;9.10;;;13.20;99.90;;;;;;5082222;28;20469;-85
2022/09/02 04:46:03;;;;;;;11.53;10.60;;;13.20;99.90;;;;;;5086567;28;20998;-85
2022/09/02 04:48:31;;;;;;;7.73;7.03;;;13.20;99.90;;;;;;5083015;28;20782;-84
2022/09/02 04:51:04;;;;;;;11.43;10.63;;;13.20;99.90;;;;;;5085893;28;20510;-86
2022/09/02 04:53:31;;;;;;;5.93;5.43;;;13.30;99.90;;;;;;5077850;28;20463;-84
2022/09/02 04:55:58;;;;;;;6.13;5.73;;;13.20;99.90;;;;;;5077284;28;20462;-84
2022/09/02 04:58:26;;;;;;;8.60;6.30;;;13.30;99.90;;;;;;5077089;28;20458;-84
2022/09/02 05:00:53;;;;;;;6.50;5.93;;;13.30;99.90;;;;;;5075349;28;20907;-83
2022/09/02 05:03:19;;;;;;;6.70;5.83;;;13.30;99.90;;;;;;5076173;28;20468;-83
2022/09/02 05:05:47;;;;;;;6.20;5.80;;;13.30;99.90;;;;;;5077218;28;20459;-83
2022/09/02 05:08:16;;;;;;;7.27;6.67;;;13.30;99.90;;;;;;5076866;28;20500;-83
2022/09/02 05:10:43;;;;;;;6.60;6.10;;;13.30;99.90;;;;;;5076727;28;20496;-83
2022/09/02 05:13:10;;;;;;;7.00;6.23;;;13.30;99.90;;;;;;5077080;28;20822;-84
2022/09/02 05:15:39;;;;;;;17.80;16.07;;;13.30;99.90;;;;;;5083289;28;20465;-83
2022/09/02 05:18:06;;;;;;;34.57;31.13;;;13.30;99.90;;;;;;5084157;28;20505;-83
2022/09/02 05:20:32;;;;;;;9.33;8.40;;;13.30;99.90;;;;;;5086548;28;20497;-83
2022/09/02 05:22:59;;;;;;;12.33;11.43;;;13.40;99.90;;;;;;5086873;28;20450;-82
2022/09/02 05:25:27;;;;;;;16.80;15.07;;;13.40;99.90;;;;;;5087243;28;20478;-83
2022/09/02 05:27:54;;;;;;;16.27;14.93;;;13.50;99.90;;;;;;5087799;28;20446;-83
2022/09/02 05:30:21;;;;;;;9.10;8.40;;;13.50;99.90;;;;;;5080189;28;20486;-83
2022/09/02 05:32:48;;;;;;;6.90;5.97;;;13.60;99.90;;;;;;5078292;28;20450;-83
2022/09/02 05:35:15;;;;;;;6.17;5.67;;;13.60;99.90;;;;;;5077712;28;20451;-83
2022/09/02 05:37:42;;;;;;;5.80;5.40;;;13.70;99.90;;;;;;5078692;28;20449;-83
2022/09/02 05:40:11;;;;;;;7.30;6.60;;;13.70;99.90;;;;;;5079207;28;20992;-83
2022/09/02 05:42:39;;;;;;;5.90;5.60;;;13.80;99.90;;;;;;5081527;28;20443;-83
2022/09/02 05:45:07;;;;;;;5.80;5.40;;;13.90;99.90;;;;;;5081507;28;20480;-83
2022/09/02 05:47:35;;;;;;;4.93;4.63;;;13.90;99.90;;;;;;5081481;28;20540;-88
2022/09/02 05:50:01;;;;;;;5.03;4.70;;;14.00;99.90;;;;;;5077583;28;21040;-84
2022/09/02 05:52:28;;;;;;;6.00;5.60;;;14.00;99.90;;;;;;5077625;28;20469;-86
2022/09/02 05:54:56;;;;;;;5.57;5.17;;;14.10;99.90;;;;;;5077324;28;20456;-83
2022/09/02 05:57:24;;;;;;;5.70;5.27;;;14.10;99.90;;;;;;5078174;28;20482;-84
2022/09/02 05:59:55;;;;;;;5.43;5.07;;;14.20;99.90;;;;;;5076835;28;20484;-85
2022/09/02 06:02:23;;;;;;;4.63;4.33;;;14.30;99.90;;;;;;5077619;28;20570;-83
2022/09/02 06:07:41;;;;;;;5.73;5.33;;;14.40;99.90;;;;;;5070804;28;20449;-86
2022/09/02 06:10:08;;;;;;;6.13;5.60;;;14.40;99.90;;;;;;5075998;28;20476;-86
2022/09/02 06:12:35;;;;;;;13.60;12.50;;;14.50;99.90;;;;;;5079906;28;20448;-85
2022/09/02 06:15:04;;;;;;;10.73;9.83;;;14.60;99.90;;;;;;5077505;28;20452;-84
2022/09/02 06:17:30;;;;;;;8.57;7.97;;;14.70;99.90;;;;;;5078012;28;20459;-87
2022/09/02 06:20:01;;;;;;;5.77;5.27;;;14.80;99.90;;;;;;5075383;28;20835;-86
2022/09/02 06:22:28;;;;;;;5.60;5.30;;;14.90;99.90;;;;;;5074138;28;20458;-86
2022/09/02 06:24:54;;;;;;;5.67;5.30;;;15.00;99.90;;;;;;5075014;28;20452;-84
2022/09/02 06:27:23;;;;;;;5.00;4.70;;;15.10;99.90;;;;;;5073716;28;20750;-84
2022/09/02 06:29:50;;;;;;;4.60;4.40;;;15.20;99.90;;;;;;5073128;28;20826;-84
2022/09/02 06:32:19;;;;;;;5.10;4.80;;;15.30;99.90;;;;;;5074588;28;20436;-81
2022/09/02 06:35:07;;;;;;;5.20;4.77;;;15.40;99.90;;;;;;5073906;28;20460;-90
2022/09/02 06:37:34;;;;;;;6.63;6.00;;;15.50;99.90;;;;;;5074069;28;20444;-85
2022/09/02 06:40:01;;;;;;;18.53;16.70;;;15.60;99.90;;;;;;5076355;28;20489;-85
2022/09/02 06:42:29;;;;;;;15.37;13.97;;;15.60;99.90;;;;;;5076800;28;20947;-87
2022/09/02 06:44:55;;;;;;;8.50;7.70;;;15.70;99.90;;;;;;5074191;28;20456;-85
2022/09/02 06:47:24;;;;;;;5.77;5.37;;;15.70;99.90;;;;;;5075401;28;20449;-86
2022/09/02 06:49:50;;;;;;;10.33;9.50;;;15.80;99.90;;;;;;5073954;28;20974;-83
2022/09/02 06:52:17;;;;;;;5.20;4.80;;;15.90;99.90;;;;;;5079506;28;20461;-85
2022/09/02 06:54:44;;;;;;;11.97;11.07;;;16.00;99.90;;;;;;5088124;28;20459;-86
2022/09/02 06:57:11;;;;;;;25.80;23.53;;;16.10;99.90;;;;;;5086824;28;20457;-87
2022/09/02 06:59:38;;;;;;;43.73;39.53;;;16.20;99.90;;;;;;5086302;28;20590;-87
2022/09/02 07:02:05;;;;;;;12.90;11.67;;;16.20;99.90;;;;;;5086844;28;20534;-87
2022/09/02 07:07:29;;;;;;;6.67;6.17;;;16.40;99.90;;;;;;5005716;28;20440;-86
2022/09/02 07:09:56;;;;;;;4.63;4.33;;;16.50;99.90;;;;;;5063164;28;20469;-85
2022/09/02 07:12:25;;;;;;;5.00;4.70;;;16.60;99.90;;;;;;5079543;28;20453;-87
2022/09/02 07:14:53;;;;;;;5.30;4.80;;;16.70;99.90;;;;;;5079383;28;20583;-87
2022/09/02 07:17:20;;;;;;;4.33;3.93;;;16.80;99.90;;;;;;5079037;28;20451;-87
2022/09/02 07:26:53;;;;;;;6.93;5.27;;;17.10;99.90;;;;;;5078943;28;20454;-86
2022/09/02 07:30:32;;;;;;;6.57;4.17;;;17.10;99.90;;;;;;5081953;28;20480;-86
2022/09/02 07:32:59;;;;;;;13.60;12.43;;;17.30;99.90;;;;;;5076887;28;21051;-87
2022/09/02 07:36:09;;;;;;;30.67;27.53;;;17.40;99.90;;;;;;5087575;28;20550;-87
2022/09/02 07:38:55;;;;;;;5.13;4.73;;;17.50;99.90;;;;;;5045297;28;20463;-86
2022/09/02 07:41:35;;;;;;;4.57;4.20;;;17.60;99.90;;;;;;5081373;28;20532;-88
2022/09/02 07:44:06;;;;;;;4.10;3.80;;;17.60;99.90;;;;;;5088188;28;20461;-86
2022/09/02 07:46:34;;;;;;;6.07;5.67;;;17.70;99.90;;;;;;5088644;28;20458;-86
2022/09/02 07:49:04;;;;;;;4.50;4.13;;;17.60;99.90;;;;;;5088705;28;21083;-86
2022/09/02 07:51:32;;;;;;;3.80;3.50;;;17.60;99.90;;;;;;5087884;28;21017;-86
2022/09/02 07:54:01;;;;;;;4.30;4.00;;;17.70;99.90;;;;;;5087576;28;20484;-86
2022/09/02 07:56:28;;;;;;;3.43;3.23;;;17.70;99.90;;;;;;5088367;28;20457;-86
2022/09/02 07:58:55;;;;;;;3.80;3.50;;;17.80;99.90;;;;;;5088438;28;20462;-86
2022/09/02 08:01:22;;;;;;;3.80;3.50;;;17.90;99.90;;;;;;5088881;28;20521;-87
2022/09/02 08:03:52;;;;;;;4.10;3.80;;;18.00;99.90;;;;;;5087692;28;20446;-87
2022/09/02 08:06:22;;;;;;;4.10;3.90;;;18.10;99.90;;;;;;5086919;28;20454;-84
2022/09/02 08:08:49;;;;;;;4.60;4.20;;;18.10;99.90;;;;;;5087323;28;20976;-85
2022/09/02 08:11:17;;;;;;;3.60;3.40;;;18.10;99.90;;;;;;5086955;28;20536;-85
2022/09/02 08:13:44;;;;;;;3.90;3.60;;;18.10;99.90;;;;;;5088028;28;20528;-85
2022/09/02 08:16:11;;;;;;;3.77;3.47;;;18.20;99.90;;;;;;5088125;28;20451;-86
2022/09/02 08:18:38;;;;;;;3.83;3.40;;;18.20;99.90;;;;;;5087789;28;20460;-85
2022/09/02 08:21:05;;;;;;;3.20;3.00;;;18.30;99.90;;;;;;5087524;28;20554;-87
2022/09/02 08:23:32;;;;;;;3.50;3.20;;;18.40;99.90;;;;;;5086781;28;20514;-85
2022/09/02 08:25:59;;;;;;;3.43;3.23;;;18.50;99.90;;;;;;5086668;28;20443;-87
2022/09/02 08:28:27;;;;;;;3.50;3.20;;;18.70;99.90;;;;;;5087286;28;20520;-86
2022/09/02 08:30:57;;;;;;;2.80;2.60;;;18.70;99.90;;;;;;5086008;28;20455;-86
2022/09/02 08:33:24;;;;;;;4.17;3.90;;;18.80;99.90;;;;;;5090637;28;20466;-85
2022/09/02 08:35:50;;;;;;;3.03;2.93;;;18.90;99.90;;;;;;5093901;28;20478;-85
2022/09/02 08:38:17;;;;;;;4.40;3.20;;;18.90;99.90;;;;;;5088062;28;20462;-86
2022/09/02 08:40:45;;;;;;;3.63;3.43;;;19.10;99.70;;;;;;5087495;28;20586;-86
2022/09/02 08:43:28;;;;;;;3.23;3.03;;;19.10;99.30;;;;;;5087371;28;20447;-86
2022/09/02 08:46:01;;;;;;;3.77;3.47;;;19.20;99.90;;;;;;5086459;28;20451;-86
2022/09/02 08:48:36;;;;;;;2.70;2.50;;;19.30;99.50;;;;;;5086429;28;20488;-86
2022/09/02 08:51:08;;;;;;;4.73;3.63;;;19.40;99.30;;;;;;5086866;28;20447;-85
2022/09/02 08:53:39;;;;;;;3.40;3.10;;;19.50;98.70;;;;;;5086163;28;20449;-86
2022/09/02 08:56:10;;;;;;;4.33;3.30;;;19.70;98.40;;;;;;5085991;28;20450;-86
2022/09/02 08:58:40;;;;;;;3.87;3.67;;;19.70;98.30;;;;;;5084783;28;20457;-85
2022/09/02 09:01:17;;;;;;;2.87;2.77;;;19.90;97.90;;;;;;5085929;28;20475;-86
2022/09/02 09:03:59;;;;;;;4.37;3.70;;;20.00;97.20;;;;;;5085837;28;20458;-87
2022/09/02 09:06:39;;;;;;;3.13;2.90;;;20.00;97.60;;;;;;5085995;28;20463;-86
2022/09/02 09:09:13;;;;;;;2.80;2.60;;;20.20;97.80;;;;;;5085549;28;20456;-87
2022/09/02 09:11:48;;;;;;;3.70;2.70;;;20.20;97.00;;;;;;5084418;28;20448;-86
2022/09/02 09:14:26;;;;;;;2.87;2.67;;;20.20;96.20;;;;;;5085000;28;20559;-84
2022/09/02 09:16:58;;;;;;;2.60;2.40;;;20.30;96.40;;;;;;5084210;28;20551;-84
2022/09/02 09:19:36;;;;;;;3.87;3.37;;;20.40;96.10;;;;;;5083843;28;20501;-85
2022/09/02 09:22:04;;;;;;;3.30;2.60;;;20.50;96.30;;;;;;5085285;28;20565;-86
2022/09/02 09:24:36;;;;;;;4.63;3.50;;;20.60;96.50;;;;;;5086108;28;20931;-85
2022/09/02 09:27:05;;;;;;;3.63;2.60;;;20.70;96.30;;;;;;5085295;28;20455;-87
2022/09/02 09:29:35;;;;;;;2.50;2.40;;;20.70;95.10;;;;;;5084911;28;20473;-86
2022/09/02 09:32:06;;;;;;;2.90;2.70;;;20.90;95.30;;;;;;5085114;28;20453;-85
2022/09/02 09:34:56;;;;;;;2.33;2.20;;;20.90;94.00;;;;;;5083786;28;20445;-87
2022/09/02 09:37:30;;;;;;;2.70;2.60;;;20.80;93.20;;;;;;5084648;28;20492;-86
2022/09/02 09:39:57;;;;;;;2.13;2.03;;;20.90;94.40;;;;;;5083960;28;20515;-87
2022/09/02 09:42:32;;;;;;;3.67;2.67;;;20.90;93.10;;;;;;5084071;28;20494;-86
2022/09/02 09:44:59;;;;;;;2.10;2.00;;;21.00;93.50;;;;;;5085252;28;20456;-86
2022/09/02 09:47:28;;;;;;;3.17;2.50;;;21.10;94.00;;;;;;5084481;28;20456;-87
2022/09/02 09:50:12;;;;;;;2.30;2.20;;;21.30;93.60;;;;;;5084616;28;20539;-86
2022/09/02 09:52:39;;;;;;;2.47;2.27;;;21.40;92.40;;;;;;5084713;28;20485;-86
2022/09/02 09:55:13;;;;;;;1.97;1.87;;;21.50;92.60;;;;;;5084163;28;20449;-87
2022/09/02 09:57:41;;;;;;;5.90;2.03;;;21.70;91.60;;;;;;5083577;28;20454;-86
2022/09/02 10:00:16;;;;;;;1.87;1.70;;;21.90;92.20;;;;;;5084241;28;20499;-85
2022/09/02 10:02:50;;;;;;;2.60;2.40;;;22.00;91.90;;;;;;5083564;28;20463;-86
2022/09/02 10:05:33;;;;;;;2.20;1.97;;;22.10;90.90;;;;;;5083237;28;20473;-85
2022/09/02 10:08:03;;;;;;;2.10;2.00;;;22.10;89.90;;;;;;5084434;28;20443;-86
2022/09/02 10:10:32;;;;;;;2.17;1.93;;;22.20;89.10;;;;;;5082851;28;20840;-86
2022/09/02 10:13:16;;;;;;;1.97;1.90;;;22.30;90.10;;;;;;5082556;28;20533;-86
2022/09/02 10:15:51;;;;;;;1.70;1.60;;;22.30;87.30;;;;;;5084174;28;20458;-84
2022/09/02 10:18:28;;;;;;;1.73;1.63;;;22.40;88.30;;;;;;5082856;28;20528;-87
2022/09/02 10:21:00;;;;;;;2.90;2.20;;;22.60;89.20;;;;;;5091714;28;20507;-85
2022/09/02 10:23:39;;;;;;;2.23;2.13;;;22.70;87.90;;;;;;5091327;28;20493;-86
2022/09/02 10:26:16;;;;;;;1.83;1.73;;;22.80;85.50;;;;;;5083809;28;20445;-86
2022/09/02 10:29:11;;;;;;;5.53;1.90;;;22.80;82.70;;;;;;5085323;28;20799;-87
2022/09/02 10:31:48;;;;;;;1.83;1.73;;;23.10;81.90;;;;;;5082903;28;20480;-87
2022/09/02 10:34:28;;;;;;;1.90;1.70;;;23.20;80.90;;;;;;5083940;28;20435;-87
2022/09/02 10:37:11;;;;;;;2.43;2.00;;;23.40;81.20;;;;;;5084016;28;20479;-86
2022/09/02 10:40:00;;;;;;;1.83;1.73;;;23.60;81.10;;;;;;5082189;28;20483;-86
2022/09/02 10:42:39;;;;;;;1.60;1.50;;;23.90;80.40;;;;;;5082338;28;20532;-86
2022/09/02 10:45:16;;;;;;;1.60;1.50;;;24.00;77.20;;;;;;5083023;28;20891;-84
2022/09/02 10:47:52;;;;;;;3.80;2.57;;;24.20;77.70;;;;;;5082340;28;20439;-86
2022/09/02 10:50:30;;;;;;;1.80;1.80;;;24.40;75.10;;;;;;5082360;28;20507;-86
2022/09/02 10:53:11;;;;;;;2.03;1.90;;;24.60;74.90;;;;;;5081441;28;20491;-86
2022/09/02 10:55:57;;;;;;;2.03;1.30;;;24.70;74.50;;;;;;5083366;28;20440;-86
2022/09/02 10:58:39;;;;;;;2.00;1.90;;;25.00;72.30;;;;;;5082344;28;20541;-86
2022/09/02 11:01:18;;;;;;;1.97;1.80;;;25.20;69.10;;;;;;5084663;28;20441;-86
2022/09/02 11:04:23;;;;;;;1.70;1.60;;;25.60;71.20;;;;;;5085451;28;20504;-86
2022/09/02 11:06:53;;;;;;;2.20;1.63;;;26.20;67.00;;;;;;5085086;28;20974;-85
2022/09/02 11:09:39;;;;;;;1.83;1.73;;;26.70;63.20;;;;;;5085922;28;20529;-86
2022/09/02 11:12:22;;;;;;;1.67;1.57;;;27.20;64.10;;;;;;5086185;28;20491;-85
2022/09/02 11:15:03;;;;;;;2.50;1.40;;;27.80;59.60;;;;;;5077324;22;20485;-82
2022/09/02 11:17:45;;;;;;;1.70;1.60;;;28.10;61.00;;;;;;5042772;28;20432;-80
2022/09/02 11:20:29;;;;;;;1.23;1.23;;;28.70;58.50;;;;;;5042357;28;20594;-83
2022/09/02 11:23:03;;;;;;;1.50;1.37;;;29.20;56.30;;;;;;5042284;28;20540;-82
2022/09/02 11:25:37;;;;;;;1.77;1.67;;;29.80;56.60;;;;;;5023710;28;20458;-82
2022/09/02 11:28:20;;;;;;;1.33;1.30;;;30.20;52.60;;;;;;5023933;28;20446;-83
2022/09/02 11:30:53;;;;;;;1.70;1.60;;;30.30;52.00;;;;;;5023501;28;20469;-82
2022/09/02 11:33:25;;;;;;;1.57;1.47;;;30.70;51.60;;;;;;5032633;28;20487;-83
2022/09/02 11:35:52;;;;;;;3.90;1.43;;;31.10;50.70;;;;;;5023104;28;20533;-82
2022/09/02 11:38:34;;;;;;;1.97;1.80;;;31.50;48.80;;;;;;5022760;28;20452;-83
2022/09/02 11:41:44;;;;;;;1.90;1.50;;;32.00;50.50;;;;;;5023039;28;20482;-83
2022/09/02 11:44:48;;;;;;;1.60;1.50;;;32.50;49.10;;;;;;5023044;28;20473;-83
2022/09/02 11:47:43;;;;;;;3.40;2.07;;;32.80;46.00;;;;;;5020529;28;20465;-83
2022/09/02 11:50:28;;;;;;;1.90;1.80;;;33.30;46.70;;;;;;5019482;28;20454;-83
2022/09/02 11:53:06;;;;;;;1.63;1.60;;;33.60;44.80;;;;;;5023743;28;20493;-83
2022/09/02 11:55:37;;;;;;;1.90;1.80;;;34.00;44.20;;;;;;5023251;28;20457;-83
2022/09/02 11:58:04;;;;;;;1.50;1.30;;;34.30;42.60;;;;;;5023171;28;20455;-83
2022/09/02 12:00:35;;;;;;;2.90;1.80;;;34.50;42.60;;;;;;5023302;28;20452;-83
2022/09/02 12:03:18;;;;;;;2.10;1.77;;;34.70;41.70;;;;;;5023902;28;20462;-83
2022/09/02 12:06:04;;;;;;;1.37;1.27;;;34.80;42.00;;;;;;5024306;28;20431;-84
2022/09/02 12:09:05;;;;;;;1.57;1.47;;;34.90;41.10;;;;;;5024281;28;20872;-83
2022/09/02 12:11:53;;;;;;;1.73;1.63;;;35.40;40.70;;;;;;5024952;28;20454;-84
2022/09/02 12:15:03;;;;;;;1.83;1.73;;;35.60;39.60;;;;;;5024614;28;20485;-84
2022/09/02 12:17:45;;;;;;;1.80;1.70;;;35.70;39.20;;;;;;5024555;28;20434;-82
2022/09/02 12:20:32;;;;;;;1.70;1.60;;;35.70;36.80;;;;;;5024178;28;20461;-83
2022/09/02 12:22:59;;;;;;;2.47;2.27;;;35.40;37.30;;;;;;5024804;28;20446;-83
2022/09/02 12:25:41;;;;;;;1.70;1.60;;;35.60;38.80;;;;;;5023880;28;20462;-83
2022/09/02 12:28:29;;;;;;;1.93;1.47;;;35.80;37.90;;;;;;5024451;28;20478;-83
2022/09/02 12:31:16;;;;;;;2.60;1.80;;;36.20;38.30;;;;;;5031243;28;20970;-82
2022/09/02 12:33:44;;;;;;;2.03;1.93;;;36.20;36.60;;;;;;5024415;28;20508;-84
2022/09/02 12:36:47;;;;;;;1.80;1.40;;;36.00;35.60;;;;;;5023772;28;20452;-83
2022/09/02 12:39:55;;;;;;;1.70;1.60;;;36.00;36.00;;;;;;5024609;28;20431;-84
2022/09/02 12:42:28;;;;;;;2.07;1.90;;;36.40;36.10;;;;;;5014292;28;20458;-84
2022/09/02 12:45:05;;;;;;;1.67;1.57;;;36.50;34.10;;;;;;5025225;28;20497;-84
2022/09/02 12:47:46;;;;;;;2.27;2.07;;;36.80;35.20;;;;;;5025288;28;20453;-83
2022/09/02 12:50:21;;;;;;;2.07;1.97;;;37.10;34.70;;;;;;5028804;28;20446;-83
2022/09/02 12:52:49;;;;;;;2.77;2.23;;;37.10;34.20;;;;;;5029240;28;20489;-83
2022/09/02 12:55:21;;;;;;;1.60;1.50;;;37.20;33.90;;;;;;5024347;28;20470;-83
2022/09/02 12:57:51;;;;;;;2.50;2.30;;;37.60;33.80;;;;;;5023835;28;20446;-84
2022/09/02 13:00:34;;;;;;;1.87;1.77;;;38.10;34.10;;;;;;5025221;28;20449;-84
2022/09/02 13:03:17;;;;;;;1.90;1.80;;;38.70;33.80;;;;;;5025838;28;20450;-84
2022/09/02 13:05:54;;;;;;;2.10;1.93;;;39.20;32.70;;;;;;5025218;28;20445;-82
2022/09/02 13:08:57;;;;;;;2.33;2.23;;;39.50;32.00;;;;;;5024635;28;20430;-84
2022/09/02 13:12:11;;;;;;;1.93;1.83;;;39.60;31.70;;;;;;5024947;28;20814;-84
2022/09/02 13:14:59;;;;;;;2.20;1.73;;;39.60;31.10;;;;;;5028934;28;20481;-83
2022/09/02 13:17:54;;;;;;;2.07;1.97;;;39.80;31.60;;;;;;5027219;28;20454;-84
2022/09/02 13:20:57;;;;;;;2.23;2.03;;;39.60;31.20;;;;;;5022878;28;20436;-83
2022/09/02 13:23:46;;;;;;;2.23;2.13;;;39.80;31.20;;;;;;5024438;28;20454;-84
2022/09/02 13:26:25;;;;;;;2.63;2.50;;;40.00;29.90;;;;;;5027064;28;20951;-82